createdAt,value
2023-12-11T00:00:35.688Z,75.60
2023-12-11T00:03:03.548Z,70.78
2023-12-11T00:05:31.296Z,78.18
2023-12-11T00:07:59.118Z,80.75
2023-12-11T00:10:26.857Z,99.60
2023-12-11T00:12:55.027Z,92.18
2023-12-11T00:15:23.098Z,89.10
2023-12-11T00:17:50.985Z,78.82
2023-12-11T00:20:18.845Z,76.20
2023-12-11T00:22:46.607Z,79.97
2023-12-11T00:25:14.844Z,77.50
2023-12-11T00:27:42.593Z,77.93
2023-12-11T00:30:10.493Z,74.10
2023-12-11T00:32:38.294Z,74.13
2023-12-11T00:35:06.315Z,80.15
2023-12-11T00:37:34.211Z,69.22
2023-12-11T00:40:02.166Z,72.97
2023-12-11T00:42:29.986Z,70.45
2023-12-11T00:44:57.662Z,70.45
2023-12-11T00:47:25.350Z,78.57
2023-12-11T00:49:54.518Z,71.18
2023-12-11T00:52:22.317Z,68.50
2023-12-11T00:54:50.181Z,67.20
2023-12-11T00:57:17.916Z,59.15
2023-12-11T00:59:45.777Z,55.40
2023-12-11T01:02:14.373Z,61.58
2023-12-11T01:04:42.188Z,58.38
2023-12-11T01:07:10.337Z,63.70
2023-12-11T01:09:38.565Z,62.67
2023-12-11T01:12:06.546Z,57.33
2023-12-11T01:14:34.297Z,60.15
2023-12-11T01:17:35.977Z,58.78
2023-12-11T01:19:49.873Z,55.97
2023-12-11T01:22:17.675Z,52.55
2023-12-11T01:24:45.404Z,60.63
2023-12-11T01:27:13.172Z,59.33
2023-12-11T01:29:40.818Z,57.17
2023-12-11T01:32:08.570Z,57.22
2023-12-11T01:34:36.350Z,57.30
2023-12-11T01:37:04.266Z,61.38
2023-12-11T01:39:32.066Z,54.42
2023-12-11T01:42:00.295Z,56.45
2023-12-11T01:44:28.148Z,56.30
2023-12-11T01:46:55.986Z,54.60
2023-12-11T01:49:23.774Z,53.88
2023-12-11T01:51:51.682Z,58.63
2023-12-11T01:54:20.698Z,58.42
2023-12-11T01:56:48.560Z,51.65
2023-12-11T01:59:16.396Z,55.47
2023-12-11T02:01:45.140Z,60.40
2023-12-11T02:04:17.190Z,58.00
2023-12-11T02:06:45.050Z,59.08
2023-12-11T02:09:12.842Z,60.42
2023-12-11T02:11:41.292Z,58.55
2023-12-11T02:14:09.751Z,55.75
2023-12-11T02:16:37.538Z,70.93
2023-12-11T02:19:05.326Z,55.42
2023-12-11T02:21:33.264Z,62.72
2023-12-11T02:24:03.699Z,62.88
2023-12-11T02:26:31.480Z,61.00
2023-12-11T02:28:59.259Z,63.75
2023-12-11T02:31:27.007Z,59.08
2023-12-11T02:33:54.754Z,58.33
2023-12-11T02:36:22.470Z,54.20
2023-12-11T02:38:50.147Z,62.22
2023-12-11T02:41:17.908Z,57.05
2023-12-11T02:43:45.849Z,58.20
2023-12-11T02:46:13.692Z,58.83
2023-12-11T02:48:41.651Z,54.33
2023-12-11T02:51:09.635Z,49.67
2023-12-11T02:53:37.377Z,44.55
2023-12-11T02:56:05.283Z,47.95
2023-12-11T02:58:32.961Z,44.53
2023-12-11T03:01:00.989Z,45.22
2023-12-11T03:03:28.838Z,44.40
2023-12-11T03:05:56.577Z,47.50
2023-12-11T03:08:24.364Z,50.20
2023-12-11T03:10:52.080Z,41.75
2023-12-11T03:13:19.775Z,42.55
2023-12-11T03:15:47.506Z,40.97
2023-12-11T03:18:15.302Z,45.47
2023-12-11T03:20:43.366Z,44.70
2023-12-11T03:23:11.109Z,49.53
2023-12-11T03:25:38.835Z,43.50
2023-12-11T03:28:06.666Z,45.80
2023-12-11T03:30:34.415Z,44.55
2023-12-11T03:33:02.204Z,43.22
2023-12-11T03:35:29.886Z,51.50
2023-12-11T03:37:57.664Z,42.70
2023-12-11T03:40:25.352Z,48.40
2023-12-11T03:42:53.104Z,44.15
2023-12-11T03:45:20.822Z,45.00
2023-12-11T03:47:48.569Z,50.85
2023-12-11T03:50:16.351Z,45.22
2023-12-11T03:52:44.064Z,47.08
2023-12-11T03:55:11.898Z,45.80
2023-12-11T03:57:39.754Z,50.15
2023-12-11T04:00:08.126Z,43.65
2023-12-11T04:02:35.885Z,45.63
2023-12-11T04:05:05.149Z,54.35
2023-12-11T04:07:33.200Z,38.33
2023-12-11T04:10:00.937Z,36.47
2023-12-11T04:12:28.679Z,40.00
2023-12-11T04:14:56.552Z,37.58
2023-12-11T04:17:24.264Z,34.00
2023-12-11T04:19:52.178Z,37.17
2023-12-11T04:22:19.981Z,40.45
2023-12-11T04:24:47.779Z,38.42
2023-12-11T04:27:15.892Z,40.85
2023-12-11T04:29:43.928Z,38.00
2023-12-11T04:32:11.633Z,39.15
2023-12-11T04:34:39.473Z,39.92
2023-12-11T04:37:07.176Z,39.97
2023-12-11T04:39:34.898Z,38.63
2023-12-11T04:42:02.697Z,39.55
2023-12-11T04:44:30.384Z,40.83
2023-12-11T04:46:58.121Z,37.38
2023-12-11T04:49:25.880Z,37.10
2023-12-11T04:51:53.714Z,40.50
2023-12-11T04:54:21.428Z,40.13
2023-12-11T04:56:49.119Z,40.10
2023-12-11T04:59:16.784Z,33.80
2023-12-11T05:01:44.590Z,37.22
2023-12-11T05:04:12.422Z,37.47
2023-12-11T05:06:40.211Z,37.17
2023-12-11T05:09:07.876Z,40.90
2023-12-11T05:11:35.696Z,40.55
2023-12-11T05:14:03.681Z,35.72
2023-12-11T05:16:31.673Z,36.15
2023-12-11T05:18:59.537Z,38.15
2023-12-11T05:21:27.287Z,37.50
2023-12-11T05:23:55.704Z,42.63
2023-12-11T05:26:23.766Z,38.97
2023-12-11T05:28:51.993Z,42.78
2023-12-11T05:31:19.811Z,38.03
2023-12-11T05:33:47.670Z,38.60
2023-12-11T05:36:15.403Z,36.53
2023-12-11T05:38:43.164Z,33.90
2023-12-11T05:41:10.979Z,32.40
2023-12-11T05:43:38.766Z,37.63
2023-12-11T05:46:07.429Z,45.78
2023-12-11T05:48:35.440Z,33.88
2023-12-11T05:51:03.728Z,36.35
2023-12-11T05:53:31.435Z,34.42
2023-12-11T05:55:59.133Z,33.38
2023-12-11T05:58:26.970Z,40.35
2023-12-11T06:00:54.839Z,33.47
2023-12-11T06:03:22.597Z,41.50
2023-12-11T06:05:50.600Z,39.95
2023-12-11T06:08:18.359Z,44.85
2023-12-11T06:10:46.246Z,47.15
2023-12-11T06:13:13.997Z,36.03
2023-12-11T06:15:41.827Z,36.95
2023-12-11T06:18:09.639Z,37.45
2023-12-11T06:20:37.454Z,35.08
2023-12-11T06:23:05.122Z,37.47
2023-12-11T06:25:33.274Z,38.38
2023-12-11T06:28:00.985Z,35.92
2023-12-11T06:30:28.694Z,33.63
2023-12-11T06:32:56.422Z,41.30
2023-12-11T06:35:24.242Z,43.47
2023-12-11T06:37:51.998Z,42.17
2023-12-11T06:40:19.811Z,43.72
2023-12-11T06:42:47.551Z,43.20
2023-12-11T06:45:16.114Z,34.30
2023-12-11T06:47:43.915Z,37.80
2023-12-11T06:50:12.207Z,38.72
2023-12-11T06:52:40.139Z,38.10
2023-12-11T06:55:08.865Z,37.22
2023-12-11T06:57:36.679Z,40.45
2023-12-11T07:00:06.441Z,37.33
2023-12-11T07:02:34.656Z,43.55
2023-12-11T07:05:02.789Z,43.65
2023-12-11T07:07:31.064Z,44.10
2023-12-11T07:10:05.286Z,43.67
2023-12-11T07:12:33.224Z,44.10
2023-12-11T07:15:01.613Z,48.42
2023-12-11T07:17:29.947Z,49.92
2023-12-11T07:19:58.382Z,47.53
2023-12-11T07:22:26.383Z,49.40
2023-12-11T07:24:54.180Z,42.75
2023-12-11T07:27:21.904Z,44.05
2023-12-11T07:29:49.592Z,41.92
2023-12-11T07:32:17.473Z,45.10
2023-12-11T07:34:45.377Z,44.72
2023-12-11T07:37:13.188Z,44.55
2023-12-11T07:39:41.017Z,46.63
2023-12-11T07:42:08.909Z,48.88
2023-12-11T07:44:36.634Z,42.75
2023-12-11T07:47:04.300Z,58.55
2023-12-11T07:49:32.155Z,44.85
2023-12-11T07:52:00.513Z,48.75
2023-12-11T07:54:28.310Z,53.88
2023-12-11T07:56:56.130Z,50.33
2023-12-11T07:59:23.847Z,48.08
2023-12-11T08:01:53.465Z,45.55
2023-12-11T08:04:21.589Z,44.88
2023-12-11T08:06:51.389Z,37.78
2023-12-11T08:09:19.091Z,47.92
2023-12-11T08:11:46.997Z,44.38
2023-12-11T08:14:14.663Z,43.92
2023-12-11T08:16:42.512Z,46.88
2023-12-11T08:19:10.284Z,43.90
2023-12-11T08:21:38.152Z,46.67
2023-12-11T08:24:06.908Z,46.78
2023-12-11T08:26:34.628Z,48.65
2023-12-11T08:29:02.364Z,47.50
2023-12-11T08:31:30.081Z,42.15
2023-12-11T08:33:58.080Z,39.83
2023-12-11T08:36:26.128Z,42.20
2023-12-11T08:38:54.136Z,41.65
2023-12-11T08:41:21.872Z,43.03
2023-12-11T08:43:49.700Z,41.28
2023-12-11T08:46:17.587Z,40.60
2023-12-11T08:48:45.899Z,42.38
2023-12-11T08:51:13.642Z,42.55
2023-12-11T08:53:41.419Z,45.22
2023-12-11T08:56:09.227Z,44.95
2023-12-11T08:58:38.082Z,46.42
2023-12-11T09:01:06.487Z,48.50
2023-12-11T09:03:34.340Z,44.42
2023-12-11T09:06:02.143Z,43.65
2023-12-11T09:08:30.150Z,46.13
2023-12-11T09:10:58.217Z,49.00
2023-12-11T09:13:29.248Z,49.40
2023-12-11T09:16:00.212Z,41.20
2023-12-11T09:18:28.524Z,40.95
2023-12-11T09:20:56.638Z,35.97
2023-12-11T09:23:24.449Z,35.42
2023-12-11T09:25:52.390Z,34.78
2023-12-11T09:28:20.245Z,39.00
2023-12-11T09:30:48.118Z,38.38
2023-12-11T09:33:16.313Z,38.75
2023-12-11T09:35:47.798Z,34.65
2023-12-11T09:38:16.173Z,36.20
2023-12-11T09:40:44.088Z,45.13
2023-12-11T09:43:11.883Z,38.67
2023-12-11T09:45:40.544Z,80.20
2023-12-11T09:48:14.365Z,48.95
2023-12-11T09:50:43.439Z,47.15
2023-12-11T09:53:11.350Z,39.47
2023-12-11T09:55:39.569Z,42.92
2023-12-11T09:58:08.329Z,41.08
2023-12-11T10:00:36.858Z,36.50
2023-12-11T10:03:06.913Z,40.65
2023-12-11T10:05:37.296Z,45.50
2023-12-11T10:08:05.699Z,50.28
2023-12-11T10:10:35.101Z,54.28
2023-12-11T10:13:03.336Z,49.45
2023-12-11T10:15:34.893Z,44.50
2023-12-11T10:18:04.697Z,55.30
2023-12-11T10:20:33.223Z,48.28
2023-12-11T10:23:14.478Z,42.72
2023-12-11T10:25:48.596Z,46.15
2023-12-11T10:28:20.688Z,45.63
2023-12-11T10:31:00.736Z,50.50
2023-12-11T10:33:32.596Z,46.72
2023-12-11T10:36:13.386Z,46.28
2023-12-11T10:38:41.533Z,50.25
2023-12-11T10:41:09.634Z,47.55
2023-12-11T10:44:02.002Z,46.53
2023-12-11T10:46:37.179Z,45.63
2023-12-11T10:49:05.699Z,48.45
2023-12-11T10:51:35.990Z,49.25
2023-12-11T10:54:15.023Z,50.92
2023-12-11T10:56:47.801Z,51.05
2023-12-11T10:59:15.659Z,52.20
2023-12-11T11:01:46.752Z,51.38
2023-12-11T11:04:15.472Z,48.42
2023-12-11T11:07:03.483Z,57.42
2023-12-11T11:09:34.149Z,55.42
2023-12-11T11:12:16.828Z,50.05
2023-12-11T11:14:48.974Z,54.33
2023-12-11T11:17:19.181Z,56.50
2023-12-11T11:20:11.746Z,52.15
2023-12-11T11:22:41.304Z,53.67
2023-12-11T11:25:41.950Z,52.67
2023-12-11T11:28:32.179Z,51.95
2023-12-11T11:31:15.250Z,47.25
2023-12-11T11:33:48.791Z,52.97
2023-12-11T11:36:18.304Z,50.92
2023-12-11T11:38:52.758Z,54.47
2023-12-11T11:41:33.662Z,56.03
2023-12-11T11:44:01.576Z,49.33
2023-12-11T11:46:29.596Z,55.08
2023-12-11T11:48:57.655Z,52.83
2023-12-11T11:51:31.171Z,52.40
2023-12-11T11:54:00.896Z,54.35
2023-12-11T11:56:28.839Z,51.00
2023-12-11T11:59:04.012Z,55.13
2023-12-11T12:01:31.868Z,47.55
2023-12-11T12:04:04.434Z,45.13
2023-12-11T12:06:32.491Z,49.17
2023-12-11T12:09:02.801Z,42.97
2023-12-11T12:11:34.907Z,43.55
2023-12-11T12:14:02.783Z,40.33
2023-12-11T12:16:31.014Z,42.35
2023-12-11T12:18:58.808Z,44.03
2023-12-11T12:21:26.547Z,44.70
2023-12-11T12:24:02.122Z,42.58
2023-12-11T12:26:29.915Z,44.22
2023-12-11T12:28:57.605Z,56.97
2023-12-11T12:31:25.368Z,64.30
2023-12-11T12:33:53.592Z,47.25
2023-12-11T12:36:21.646Z,51.00
2023-12-11T12:38:49.480Z,49.03
2023-12-11T12:41:18.713Z,43.38
2023-12-11T12:43:48.402Z,44.15
2023-12-11T12:46:18.984Z,45.13
2023-12-11T12:48:46.866Z,43.83
2023-12-11T12:51:15.920Z,70.72
2023-12-11T12:53:48.242Z,47.70
2023-12-11T12:56:20.691Z,41.55
2023-12-11T12:58:49.456Z,45.33
2023-12-11T13:01:18.279Z,44.03
2023-12-11T13:03:46.424Z,45.08
2023-12-11T13:06:29.793Z,46.85
2023-12-11T13:08:57.706Z,45.30
2023-12-11T13:11:44.810Z,60.58
2023-12-11T13:14:15.899Z,49.10
2023-12-11T13:16:48.015Z,53.28
2023-12-11T13:21:44.628Z,53.28
2023-12-11T13:24:14.120Z,49.75
2023-12-11T13:26:41.831Z,53.08
2023-12-11T13:29:09.526Z,55.33
2023-12-11T13:31:37.375Z,47.40
2023-12-11T13:34:05.173Z,46.65
2023-12-11T13:36:32.987Z,50.20
2023-12-11T13:39:00.749Z,49.67
2023-12-11T13:41:28.540Z,47.97
2023-12-11T13:43:56.253Z,42.92
2023-12-11T13:46:24.435Z,46.35
2023-12-11T13:48:52.381Z,45.75
2023-12-11T13:51:20.203Z,45.15
2023-12-11T13:53:47.872Z,45.70
2023-12-11T13:56:15.584Z,45.42
2023-12-11T13:58:43.377Z,46.80
2023-12-11T14:01:11.261Z,46.20
2023-12-11T14:03:39.019Z,47.95
2023-12-11T14:06:07.096Z,50.20
2023-12-11T14:08:34.873Z,52.22
2023-12-11T14:11:02.757Z,46.28
2023-12-11T14:13:30.577Z,46.78
2023-12-11T14:15:59.790Z,50.97
2023-12-11T14:18:31.139Z,47.20
2023-12-11T14:21:02.525Z,47.72
2023-12-11T14:23:30.586Z,46.78
2023-12-11T14:25:58.284Z,48.10
2023-12-11T14:28:26.109Z,48.22
2023-12-11T14:30:54.943Z,49.10
2023-12-11T14:33:22.727Z,47.53
2023-12-11T14:35:50.472Z,53.22
2023-12-11T14:38:18.196Z,49.08
2023-12-11T14:40:45.988Z,50.47
2023-12-11T14:43:14.357Z,50.38
2023-12-11T14:45:42.329Z,51.67
2023-12-11T14:48:10.098Z,52.58
2023-12-11T14:50:38.164Z,50.05
2023-12-11T14:53:05.928Z,53.05
2023-12-11T14:55:39.148Z,52.35
2023-12-11T14:58:11.053Z,52.47
2023-12-11T15:00:39.285Z,52.42
2023-12-11T15:03:07.060Z,61.53
2023-12-11T15:05:34.798Z,52.53
2023-12-11T15:08:02.546Z,63.25
2023-12-11T15:10:31.684Z,54.65
2023-12-11T15:12:59.568Z,57.65
2023-12-11T15:15:29.038Z,57.05
2023-12-11T15:17:56.830Z,55.25
2023-12-11T15:20:25.371Z,54.13
2023-12-11T15:22:53.077Z,54.10
2023-12-11T15:25:20.867Z,56.95
2023-12-11T15:27:50.254Z,51.97
2023-12-11T15:30:18.466Z,55.50
2023-12-11T15:32:48.798Z,56.55
2023-12-11T15:35:17.452Z,55.35
2023-12-11T15:37:45.185Z,54.75
2023-12-11T15:40:13.297Z,56.30
2023-12-11T15:42:41.072Z,61.97
2023-12-11T15:45:09.235Z,56.83
2023-12-11T15:47:59.938Z,54.95
2023-12-11T15:50:25.493Z,53.53
2023-12-11T15:52:53.294Z,54.08
2023-12-11T15:55:21.535Z,56.85
2023-12-11T15:57:49.367Z,54.92
2023-12-11T16:00:17.243Z,54.83
2023-12-11T16:02:45.159Z,57.13
2023-12-11T16:05:12.861Z,54.35
2023-12-11T16:07:40.695Z,54.70
2023-12-11T16:10:08.747Z,57.47
2023-12-11T16:12:38.765Z,54.33
2023-12-11T16:15:06.723Z,55.75
2023-12-11T16:17:34.786Z,56.50
2023-12-11T16:20:03.040Z,54.97
2023-12-11T16:22:30.893Z,58.05
2023-12-11T16:24:58.647Z,59.90
2023-12-11T16:27:26.358Z,56.70
2023-12-11T16:29:54.139Z,55.03
2023-12-11T16:32:21.894Z,57.30
2023-12-11T16:34:49.551Z,53.22
2023-12-11T16:37:18.636Z,55.70
2023-12-11T16:39:46.512Z,62.63
2023-12-11T16:42:14.394Z,53.25
2023-12-11T16:44:42.122Z,60.70
2023-12-11T16:47:09.861Z,58.70
2023-12-11T16:49:47.485Z,63.53
2023-12-11T16:52:23.069Z,58.67
2023-12-11T16:54:51.278Z,53.10
2023-12-11T16:57:19.001Z,56.72
2023-12-11T16:59:46.667Z,58.10
2023-12-11T17:02:15.251Z,60.88
2023-12-11T17:04:44.668Z,59.35
2023-12-11T17:07:13.124Z,55.50
2023-12-11T17:09:40.746Z,50.95
2023-12-11T17:12:08.595Z,55.22
2023-12-11T17:14:36.433Z,46.72
2023-12-11T17:17:07.106Z,54.08
2023-12-11T17:19:34.856Z,51.75
2023-12-11T17:22:02.659Z,57.25
2023-12-11T17:24:30.868Z,55.15
2023-12-11T17:26:58.545Z,56.35
2023-12-11T17:29:27.133Z,59.47
2023-12-11T17:31:54.933Z,67.03
2023-12-11T17:34:22.662Z,63.80
2023-12-11T17:36:50.412Z,65.40
2023-12-11T17:39:21.199Z,70.75
2023-12-11T17:41:49.111Z,59.33
2023-12-11T17:44:16.839Z,64.15
2023-12-11T17:46:44.625Z,62.28
2023-12-11T17:49:12.364Z,62.10
2023-12-11T17:51:40.322Z,62.95
2023-12-11T17:54:07.964Z,61.13
2023-12-11T17:56:35.565Z,66.03
2023-12-11T17:59:03.273Z,64.00
2023-12-11T18:01:30.990Z,60.80
2023-12-11T18:03:58.786Z,56.35
2023-12-11T18:06:26.656Z,64.45
2023-12-11T18:08:54.315Z,54.42
2023-12-11T18:11:22.012Z,59.70
2023-12-11T18:13:49.747Z,57.33
2023-12-11T18:16:17.406Z,61.47
2023-12-11T18:18:45.557Z,59.70
2023-12-11T18:21:24.752Z,64.80
2023-12-11T18:24:00.176Z,65.38
2023-12-11T18:26:30.797Z,65.35
2023-12-11T18:28:59.638Z,62.53
2023-12-11T18:31:27.599Z,67.13
2023-12-11T18:33:58.913Z,72.47
2023-12-11T18:44:48.482Z,59.75
2023-12-11T18:50:13.299Z,52.90
2023-12-11T19:09:31.242Z,78.00
2023-12-11T19:11:59.317Z,74.50
2023-12-11T19:18:09.821Z,58.30
2023-12-11T19:24:47.127Z,70.55
2023-12-11T19:27:16.311Z,71.22
2023-12-11T19:29:45.147Z,77.68
2023-12-11T19:32:16.798Z,84.00
2023-12-11T19:34:44.560Z,86.25
2023-12-11T19:37:12.391Z,69.70
2023-12-11T19:39:40.221Z,74.20
2023-12-11T19:42:10.347Z,73.18
2023-12-11T19:44:39.724Z,67.45
2023-12-11T19:47:07.596Z,70.10
2023-12-11T19:49:36.729Z,80.90
2023-12-11T19:52:05.655Z,73.78
2023-12-11T19:54:33.795Z,91.70
2023-12-11T19:57:01.513Z,77.55
2023-12-11T19:59:29.205Z,76.50
2023-12-11T20:01:57.008Z,72.68
2023-12-11T20:04:24.944Z,78.05
2023-12-11T20:06:55.902Z,74.78
2023-12-11T20:09:34.187Z,84.10
2023-12-11T20:12:11.260Z,72.03
2023-12-11T20:14:42.415Z,70.13
2023-12-11T20:17:13.597Z,72.18
2023-12-11T20:19:41.758Z,73.03
2023-12-11T20:22:09.576Z,78.30
2023-12-11T20:24:37.618Z,73.20
2023-12-11T20:27:08.743Z,69.90
2023-12-11T20:29:36.454Z,69.07
2023-12-11T20:32:04.399Z,72.00
2023-12-11T20:34:32.308Z,73.95
2023-12-11T20:37:00.068Z,75.07
2023-12-11T20:39:27.861Z,69.22
2023-12-11T20:41:55.624Z,68.53
2023-12-11T20:44:23.372Z,69.07
2023-12-11T20:46:51.144Z,74.90
2023-12-11T20:49:19.059Z,70.00
2023-12-11T20:51:46.797Z,74.30
2023-12-11T20:54:15.741Z,68.57
2023-12-11T20:56:43.427Z,65.05
2023-12-11T20:59:11.138Z,69.22
2023-12-11T21:01:39.645Z,62.83
2023-12-11T21:04:09.156Z,54.28
2023-12-11T21:06:37.252Z,50.90
2023-12-11T21:09:15.985Z,48.25
2023-12-11T21:11:43.873Z,55.90
2023-12-11T21:14:11.719Z,58.15
2023-12-11T21:16:39.498Z,58.92
2023-12-11T21:19:07.405Z,57.42
2023-12-11T21:21:39.894Z,59.70
2023-12-11T21:24:10.003Z,48.15
2023-12-11T21:26:38.033Z,64.80
2023-12-11T21:29:05.818Z,66.45
2023-12-11T21:31:54.201Z,74.75
2023-12-11T21:34:43.884Z,70.72
2023-12-11T21:37:27.682Z,73.35
2023-12-11T21:39:55.882Z,72.50
2023-12-11T21:42:24.336Z,63.65
2023-12-11T21:44:52.071Z,63.90
2023-12-11T21:47:22.765Z,61.63
2023-12-11T21:49:50.642Z,57.35
2023-12-11T21:52:18.426Z,65.05
2023-12-11T21:54:47.945Z,62.38
2023-12-11T21:57:19.863Z,62.17
2023-12-11T21:59:48.629Z,63.42
2023-12-11T22:02:16.538Z,65.78
2023-12-11T22:04:44.312Z,70.47
2023-12-11T22:07:14.140Z,63.35
2023-12-11T22:09:43.433Z,57.60
2023-12-11T22:12:11.187Z,64.07
2023-12-11T22:14:38.854Z,63.22
2023-12-11T22:17:06.768Z,63.17
2023-12-11T22:19:36.096Z,64.07
2023-12-11T22:22:03.890Z,62.83
2023-12-11T22:24:31.584Z,62.42
2023-12-11T22:26:59.319Z,59.13
2023-12-11T22:29:26.969Z,59.10
2023-12-11T22:31:54.664Z,62.80
2023-12-11T22:34:22.420Z,58.10
2023-12-11T22:36:52.841Z,64.60
2023-12-11T22:39:21.474Z,57.97
2023-12-11T22:41:49.154Z,59.15
2023-12-11T22:44:16.828Z,63.38
2023-12-11T22:46:44.481Z,62.70
2023-12-11T22:49:12.215Z,60.65
2023-12-11T22:51:39.989Z,61.65
2023-12-11T22:54:07.618Z,65.70
2023-12-11T22:56:35.296Z,60.67
2023-12-11T22:59:03.014Z,59.72
2023-12-11T23:01:34.552Z,66.28
2023-12-11T23:04:02.572Z,60.33
2023-12-11T23:06:30.242Z,63.55
2023-12-11T23:08:57.914Z,62.33
2023-12-11T23:11:25.628Z,57.20
2023-12-11T23:13:53.280Z,59.38
2023-12-11T23:16:26.338Z,63.03
2023-12-11T23:19:00.496Z,60.35
2023-12-11T23:21:29.449Z,53.70
2023-12-11T23:23:57.772Z,60.28
2023-12-11T23:26:25.667Z,58.10
2023-12-11T23:28:55.251Z,61.97
2023-12-11T23:31:22.948Z,60.20
2023-12-11T23:33:50.854Z,59.72
2023-12-11T23:36:20.768Z,53.42
2023-12-11T23:38:48.491Z,60.28
2023-12-11T23:41:16.472Z,55.38
2023-12-11T23:43:44.194Z,56.80
2023-12-11T23:46:11.853Z,59.38
2023-12-11T23:48:39.710Z,59.00
2023-12-11T23:51:07.465Z,58.83
2023-12-11T23:53:35.097Z,56.67
2023-12-11T23:56:02.807Z,50.75
2023-12-11T23:58:30.645Z,57.70
